West Wauregan, Connecticut
Current Conditions -  °F | °C
As of 5:34 PM on Wednesday 22 Oct 2014 (Local Time) from KIJD Reporting Station
Light Rain Light Rain  
Wind Chill: 52°   Ceiling: 1500
Heat Index: 52°   Visibility: 9mi
Dew Point: 47°   Wind: 14mph
Humidity: 83%   Direction: 20°NNE
Pressure: 29.84"   Gusts: 26mph
Location:  41.7443°N, 71.9127°W
Report Text: KIJD 222134Z AUTO 02012G23KT 9SM -RA OVC015 11/08 A2984 RMK AO2 PK WND 02027/2119 RAE2053B32 P0000 T01110083
Loading
Personal Weather Stations






























Interactive Weather Map
Tropical Storm Tracking
New forecast layout! Learn more

10-Day Weather Forecast

Advertisements
Track Severe Weather on mobile